sensor_id;sensor_type;location;lat;lon;timestamp;P1;durP1;ratioP1;P2;durP2;ratioP2
5900;SDS011;2976;49.764;9.796;2023-07-09T00:01:12;9.73;;;3.77;;
5900;SDS011;2976;49.764;9.796;2023-07-09T00:03:39;13.97;;;3.50;;
5900;SDS011;2976;49.764;9.796;2023-07-09T00:06:07;9.90;;;4.23;;
5900;SDS011;2976;49.764;9.796;2023-07-09T00:08:33;5.27;;;3.00;;
5900;SDS011;2976;49.764;9.796;2023-07-09T00:10:58;3.70;;;3.40;;
5900;SDS011;2976;49.764;9.796;2023-07-09T00:13:25;15.33;;;3.50;;
5900;SDS011;2976;49.764;9.796;2023-07-09T00:15:52;5.20;;;3.70;;
5900;SDS011;2976;49.764;9.796;2023-07-09T00:18:21;3.87;;;3.40;;
5900;SDS011;2976;49.764;9.796;2023-07-09T00:20:46;4.23;;;3.30;;
5900;SDS011;2976;49.764;9.796;2023-07-09T00:23:13;8.77;;;4.20;;
5900;SDS011;2976;49.764;9.796;2023-07-09T00:25:41;6.50;;;3.70;;
5900;SDS011;2976;49.764;9.796;2023-07-09T00:28:15;5.23;;;3.60;;
5900;SDS011;2976;49.764;9.796;2023-07-09T00:30:42;5.17;;;3.63;;
5900;SDS011;2976;49.764;9.796;2023-07-09T00:33:12;7.77;;;4.20;;
5900;SDS011;2976;49.764;9.796;2023-07-09T00:35:40;6.83;;;3.60;;
5900;SDS011;2976;49.764;9.796;2023-07-09T00:38:15;7.93;;;3.70;;
5900;SDS011;2976;49.764;9.796;2023-07-09T00:40:47;8.47;;;4.13;;
5900;SDS011;2976;49.764;9.796;2023-07-09T00:43:24;6.23;;;3.23;;
5900;SDS011;2976;49.764;9.796;2023-07-09T00:48:42;6.67;;;3.87;;
5900;SDS011;2976;49.764;9.796;2023-07-09T00:51:12;3.53;;;3.23;;
5900;SDS011;2976;49.764;9.796;2023-07-09T00:53:40;3.83;;;3.40;;
5900;SDS011;2976;49.764;9.796;2023-07-09T00:56:12;7.00;;;3.73;;
5900;SDS011;2976;49.764;9.796;2023-07-09T00:58:45;4.23;;;3.40;;
5900;SDS011;2976;49.764;9.796;2023-07-09T01:01:13;3.83;;;3.40;;
5900;SDS011;2976;49.764;9.796;2023-07-09T01:03:47;5.70;;;4.40;;
5900;SDS011;2976;49.764;9.796;2023-07-09T01:06:18;9.00;;;4.70;;
5900;SDS011;2976;49.764;9.796;2023-07-09T01:08:49;10.20;;;3.90;;
5900;SDS011;2976;49.764;9.796;2023-07-09T01:11:19;7.20;;;3.43;;
5900;SDS011;2976;49.764;9.796;2023-07-09T01:13:47;4.70;;;3.80;;
5900;SDS011;2976;49.764;9.796;2023-07-09T01:16:16;8.60;;;4.00;;
5900;SDS011;2976;49.764;9.796;2023-07-09T01:18:42;5.63;;;4.03;;
5900;SDS011;2976;49.764;9.796;2023-07-09T01:21:09;6.17;;;3.73;;
5900;SDS011;2976;49.764;9.796;2023-07-09T01:23:40;13.23;;;3.90;;
5900;SDS011;2976;49.764;9.796;2023-07-09T01:26:08;4.87;;;3.90;;
5900;SDS011;2976;49.764;9.796;2023-07-09T01:28:36;5.30;;;3.60;;
5900;SDS011;2976;49.764;9.796;2023-07-09T01:31:02;7.63;;;4.47;;
5900;SDS011;2976;49.764;9.796;2023-07-09T01:33:29;5.80;;;3.50;;
5900;SDS011;2976;49.764;9.796;2023-07-09T01:35:55;6.37;;;3.40;;
5900;SDS011;2976;49.764;9.796;2023-07-09T01:38:25;11.00;;;4.77;;
5900;SDS011;2976;49.764;9.796;2023-07-09T01:40:55;6.63;;;3.83;;
5900;SDS011;2976;49.764;9.796;2023-07-09T01:43:22;6.97;;;3.93;;
5900;SDS011;2976;49.764;9.796;2023-07-09T01:45:48;6.30;;;4.70;;
5900;SDS011;2976;49.764;9.796;2023-07-09T01:48:15;5.87;;;4.30;;
5900;SDS011;2976;49.764;9.796;2023-07-09T01:50:42;8.10;;;4.50;;
5900;SDS011;2976;49.764;9.796;2023-07-09T01:53:12;5.87;;;4.37;;
5900;SDS011;2976;49.764;9.796;2023-07-09T01:55:39;5.60;;;4.20;;
5900;SDS011;2976;49.764;9.796;2023-07-09T01:58:05;6.60;;;4.00;;
5900;SDS011;2976;49.764;9.796;2023-07-09T02:00:31;6.03;;;3.60;;
5900;SDS011;2976;49.764;9.796;2023-07-09T02:03:00;8.00;;;4.20;;
5900;SDS011;2976;49.764;9.796;2023-07-09T02:05:27;8.30;;;4.23;;
5900;SDS011;2976;49.764;9.796;2023-07-09T02:07:55;9.70;;;4.33;;
5900;SDS011;2976;49.764;9.796;2023-07-09T02:10:21;7.27;;;3.67;;
5900;SDS011;2976;49.764;9.796;2023-07-09T02:12:46;7.03;;;4.10;;
5900;SDS011;2976;49.764;9.796;2023-07-09T02:15:12;9.93;;;4.53;;
5900;SDS011;2976;49.764;9.796;2023-07-09T02:17:38;5.47;;;3.90;;
5900;SDS011;2976;49.764;9.796;2023-07-09T02:20:04;5.17;;;4.07;;
5900;SDS011;2976;49.764;9.796;2023-07-09T02:22:31;8.53;;;4.20;;
5900;SDS011;2976;49.764;9.796;2023-07-09T02:25:00;9.77;;;4.13;;
5900;SDS011;2976;49.764;9.796;2023-07-09T02:27:26;5.77;;;4.60;;
5900;SDS011;2976;49.764;9.796;2023-07-09T02:29:52;6.20;;;4.10;;
5900;SDS011;2976;49.764;9.796;2023-07-09T02:32:20;5.30;;;3.93;;
5900;SDS011;2976;49.764;9.796;2023-07-09T02:34:51;8.70;;;3.93;;
5900;SDS011;2976;49.764;9.796;2023-07-09T02:37:18;7.23;;;4.10;;
5900;SDS011;2976;49.764;9.796;2023-07-09T02:39:53;5.90;;;3.90;;
5900;SDS011;2976;49.764;9.796;2023-07-09T02:42:20;7.80;;;4.50;;
5900;SDS011;2976;49.764;9.796;2023-07-09T02:44:46;6.80;;;4.53;;
5900;SDS011;2976;49.764;9.796;2023-07-09T02:47:12;7.30;;;4.43;;
5900;SDS011;2976;49.764;9.796;2023-07-09T02:49:39;7.03;;;5.03;;
5900;SDS011;2976;49.764;9.796;2023-07-09T02:52:05;5.50;;;4.63;;
5900;SDS011;2976;49.764;9.796;2023-07-09T02:54:31;9.17;;;4.60;;
5900;SDS011;2976;49.764;9.796;2023-07-09T02:56:57;6.33;;;4.53;;
5900;SDS011;2976;49.764;9.796;2023-07-09T02:59:23;9.03;;;4.70;;
5900;SDS011;2976;49.764;9.796;2023-07-09T03:01:49;6.63;;;3.70;;
5900;SDS011;2976;49.764;9.796;2023-07-09T03:04:15;5.67;;;4.00;;
5900;SDS011;2976;49.764;9.796;2023-07-09T03:06:41;7.50;;;4.37;;
5900;SDS011;2976;49.764;9.796;2023-07-09T03:09:07;6.20;;;4.13;;
5900;SDS011;2976;49.764;9.796;2023-07-09T03:11:34;6.10;;;3.77;;
5900;SDS011;2976;49.764;9.796;2023-07-09T03:14:00;4.33;;;3.93;;
5900;SDS011;2976;49.764;9.796;2023-07-09T03:16:27;7.83;;;4.67;;
5900;SDS011;2976;49.764;9.796;2023-07-09T03:18:55;8.03;;;4.50;;
5900;SDS011;2976;49.764;9.796;2023-07-09T03:21:21;9.57;;;4.10;;
5900;SDS011;2976;49.764;9.796;2023-07-09T03:23:47;8.43;;;4.93;;
5900;SDS011;2976;49.764;9.796;2023-07-09T03:26:13;8.17;;;4.80;;
5900;SDS011;2976;49.764;9.796;2023-07-09T03:28:40;5.83;;;3.87;;
5900;SDS011;2976;49.764;9.796;2023-07-09T03:31:05;6.97;;;4.27;;
5900;SDS011;2976;49.764;9.796;2023-07-09T03:33:31;5.20;;;4.43;;
5900;SDS011;2976;49.764;9.796;2023-07-09T03:35:56;6.40;;;4.40;;
5900;SDS011;2976;49.764;9.796;2023-07-09T03:38:22;9.43;;;4.87;;
5900;SDS011;2976;49.764;9.796;2023-07-09T03:40:51;10.13;;;4.70;;
5900;SDS011;2976;49.764;9.796;2023-07-09T03:43:18;13.03;;;4.70;;
5900;SDS011;2976;49.764;9.796;2023-07-09T03:45:43;7.70;;;3.80;;
5900;SDS011;2976;49.764;9.796;2023-07-09T03:48:10;4.87;;;3.90;;
5900;SDS011;2976;49.764;9.796;2023-07-09T03:50:36;5.83;;;3.83;;
5900;SDS011;2976;49.764;9.796;2023-07-09T03:53:01;8.87;;;4.27;;
5900;SDS011;2976;49.764;9.796;2023-07-09T03:55:28;9.50;;;5.10;;
5900;SDS011;2976;49.764;9.796;2023-07-09T03:57:54;7.50;;;5.70;;
5900;SDS011;2976;49.764;9.796;2023-07-09T04:00:20;5.63;;;4.50;;
5900;SDS011;2976;49.764;9.796;2023-07-09T04:02:46;5.30;;;4.10;;
5900;SDS011;2976;49.764;9.796;2023-07-09T04:05:12;4.50;;;3.90;;
5900;SDS011;2976;49.764;9.796;2023-07-09T04:07:38;5.90;;;3.90;;
5900;SDS011;2976;49.764;9.796;2023-07-09T04:10:04;5.50;;;4.60;;
5900;SDS011;2976;49.764;9.796;2023-07-09T04:12:30;5.40;;;4.33;;
5900;SDS011;2976;49.764;9.796;2023-07-09T04:14:56;7.03;;;5.10;;
5900;SDS011;2976;49.764;9.796;2023-07-09T04:17:22;6.37;;;4.30;;
5900;SDS011;2976;49.764;9.796;2023-07-09T04:19:48;5.43;;;4.40;;
5900;SDS011;2976;49.764;9.796;2023-07-09T04:22:15;7.73;;;4.43;;
5900;SDS011;2976;49.764;9.796;2023-07-09T04:24:40;6.07;;;4.13;;
5900;SDS011;2976;49.764;9.796;2023-07-09T04:27:06;5.50;;;3.43;;
5900;SDS011;2976;49.764;9.796;2023-07-09T04:29:32;6.33;;;3.83;;
5900;SDS011;2976;49.764;9.796;2023-07-09T04:32:03;3.93;;;3.20;;
5900;SDS011;2976;49.764;9.796;2023-07-09T04:34:47;9.03;;;4.47;;
5900;SDS011;2976;49.764;9.796;2023-07-09T04:37:13;10.37;;;4.97;;
5900;SDS011;2976;49.764;9.796;2023-07-09T04:39:42;4.30;;;3.90;;
5900;SDS011;2976;49.764;9.796;2023-07-09T04:42:10;7.07;;;4.40;;
5900;SDS011;2976;49.764;9.796;2023-07-09T04:44:38;8.53;;;4.30;;
5900;SDS011;2976;49.764;9.796;2023-07-09T04:47:04;5.37;;;3.63;;
5900;SDS011;2976;49.764;9.796;2023-07-09T04:49:30;4.57;;;3.63;;
5900;SDS011;2976;49.764;9.796;2023-07-09T04:51:56;5.27;;;3.50;;
5900;SDS011;2976;49.764;9.796;2023-07-09T04:54:22;13.00;;;4.60;;
5900;SDS011;2976;49.764;9.796;2023-07-09T04:56:48;8.80;;;4.40;;
5900;SDS011;2976;49.764;9.796;2023-07-09T04:59:14;11.13;;;4.50;;
5900;SDS011;2976;49.764;9.796;2023-07-09T05:01:40;6.40;;;4.43;;
5900;SDS011;2976;49.764;9.796;2023-07-09T05:04:05;5.53;;;4.40;;
5900;SDS011;2976;49.764;9.796;2023-07-09T05:06:32;6.90;;;5.00;;
5900;SDS011;2976;49.764;9.796;2023-07-09T05:08:58;4.27;;;3.87;;
5900;SDS011;2976;49.764;9.796;2023-07-09T05:11:23;8.23;;;4.60;;
5900;SDS011;2976;49.764;9.796;2023-07-09T05:13:49;8.23;;;5.07;;
5900;SDS011;2976;49.764;9.796;2023-07-09T05:16:15;4.40;;;4.00;;
5900;SDS011;2976;49.764;9.796;2023-07-09T05:18:41;12.27;;;4.00;;
5900;SDS011;2976;49.764;9.796;2023-07-09T05:21:07;8.07;;;3.70;;
5900;SDS011;2976;49.764;9.796;2023-07-09T05:23:32;9.07;;;4.63;;
5900;SDS011;2976;49.764;9.796;2023-07-09T05:25:59;7.73;;;4.87;;
5900;SDS011;2976;49.764;9.796;2023-07-09T05:28:25;7.63;;;3.93;;
5900;SDS011;2976;49.764;9.796;2023-07-09T05:30:51;9.13;;;3.90;;
5900;SDS011;2976;49.764;9.796;2023-07-09T05:33:17;5.03;;;4.53;;
5900;SDS011;2976;49.764;9.796;2023-07-09T05:35:43;8.73;;;4.63;;
5900;SDS011;2976;49.764;9.796;2023-07-09T05:38:09;7.43;;;4.70;;
5900;SDS011;2976;49.764;9.796;2023-07-09T05:40:35;5.33;;;3.90;;
5900;SDS011;2976;49.764;9.796;2023-07-09T05:43:01;5.70;;;4.13;;
5900;SDS011;2976;49.764;9.796;2023-07-09T05:45:26;4.67;;;3.83;;
5900;SDS011;2976;49.764;9.796;2023-07-09T05:47:52;6.33;;;4.13;;
5900;SDS011;2976;49.764;9.796;2023-07-09T05:50:17;6.10;;;4.47;;
5900;SDS011;2976;49.764;9.796;2023-07-09T05:52:43;6.97;;;4.57;;
5900;SDS011;2976;49.764;9.796;2023-07-09T05:55:08;4.67;;;4.00;;
5900;SDS011;2976;49.764;9.796;2023-07-09T05:57:34;6.80;;;4.70;;
5900;SDS011;2976;49.764;9.796;2023-07-09T06:00:00;8.23;;;5.10;;
5900;SDS011;2976;49.764;9.796;2023-07-09T06:02:25;9.83;;;5.03;;
5900;SDS011;2976;49.764;9.796;2023-07-09T06:04:51;6.13;;;4.73;;
5900;SDS011;2976;49.764;9.796;2023-07-09T06:07:17;13.73;;;5.47;;
5900;SDS011;2976;49.764;9.796;2023-07-09T06:09:45;4.87;;;4.33;;
5900;SDS011;2976;49.764;9.796;2023-07-09T06:12:11;7.20;;;4.73;;
5900;SDS011;2976;49.764;9.796;2023-07-09T06:14:37;8.97;;;4.67;;
5900;SDS011;2976;49.764;9.796;2023-07-09T06:17:02;6.73;;;4.90;;
5900;SDS011;2976;49.764;9.796;2023-07-09T06:19:28;11.80;;;4.77;;
5900;SDS011;2976;49.764;9.796;2023-07-09T06:21:54;17.80;;;5.00;;
5900;SDS011;2976;49.764;9.796;2023-07-09T06:24:21;7.90;;;4.57;;
5900;SDS011;2976;49.764;9.796;2023-07-09T06:26:47;6.00;;;4.53;;
5900;SDS011;2976;49.764;9.796;2023-07-09T06:29:12;6.23;;;4.77;;
5900;SDS011;2976;49.764;9.796;2023-07-09T06:31:38;5.33;;;4.70;;
5900;SDS011;2976;49.764;9.796;2023-07-09T06:34:05;7.60;;;4.80;;
5900;SDS011;2976;49.764;9.796;2023-07-09T06:36:32;6.33;;;4.90;;
5900;SDS011;2976;49.764;9.796;2023-07-09T06:38:58;8.23;;;4.90;;
5900;SDS011;2976;49.764;9.796;2023-07-09T06:41:24;4.87;;;4.00;;
5900;SDS011;2976;49.764;9.796;2023-07-09T06:43:49;8.20;;;4.90;;
5900;SDS011;2976;49.764;9.796;2023-07-09T06:46:15;7.43;;;5.60;;
5900;SDS011;2976;49.764;9.796;2023-07-09T06:48:43;7.23;;;4.80;;
5900;SDS011;2976;49.764;9.796;2023-07-09T06:51:09;7.00;;;5.33;;
5900;SDS011;2976;49.764;9.796;2023-07-09T06:53:34;6.53;;;4.47;;
5900;SDS011;2976;49.764;9.796;2023-07-09T06:56:01;6.13;;;5.10;;
5900;SDS011;2976;49.764;9.796;2023-07-09T06:58:28;5.60;;;5.10;;
5900;SDS011;2976;49.764;9.796;2023-07-09T07:00:56;6.20;;;5.20;;
5900;SDS011;2976;49.764;9.796;2023-07-09T07:03:22;7.00;;;4.93;;
5900;SDS011;2976;49.764;9.796;2023-07-09T07:05:49;4.80;;;4.30;;
5900;SDS011;2976;49.764;9.796;2023-07-09T07:08:16;11.10;;;5.27;;
5900;SDS011;2976;49.764;9.796;2023-07-09T07:10:44;16.63;;;5.40;;
5900;SDS011;2976;49.764;9.796;2023-07-09T07:13:11;6.30;;;5.20;;
5900;SDS011;2976;49.764;9.796;2023-07-09T07:15:37;5.70;;;4.63;;
5900;SDS011;2976;49.764;9.796;2023-07-09T07:18:03;6.40;;;4.83;;
5900;SDS011;2976;49.764;9.796;2023-07-09T07:20:30;7.43;;;5.10;;
5900;SDS011;2976;49.764;9.796;2023-07-09T07:22:56;5.33;;;4.83;;
5900;SDS011;2976;49.764;9.796;2023-07-09T07:25:22;7.83;;;5.27;;
5900;SDS011;2976;49.764;9.796;2023-07-09T07:27:48;6.83;;;5.20;;
5900;SDS011;2976;49.764;9.796;2023-07-09T07:30:13;11.00;;;5.50;;
5900;SDS011;2976;49.764;9.796;2023-07-09T07:32:43;8.87;;;6.00;;
5900;SDS011;2976;49.764;9.796;2023-07-09T07:35:12;5.90;;;4.70;;
5900;SDS011;2976;49.764;9.796;2023-07-09T07:37:38;5.13;;;4.60;;
5900;SDS011;2976;49.764;9.796;2023-07-09T07:40:05;7.73;;;5.13;;
5900;SDS011;2976;49.764;9.796;2023-07-09T07:42:31;6.23;;;4.67;;
5900;SDS011;2976;49.764;9.796;2023-07-09T07:44:56;6.30;;;4.33;;
5900;SDS011;2976;49.764;9.796;2023-07-09T07:47:22;4.97;;;4.47;;
5900;SDS011;2976;49.764;9.796;2023-07-09T07:49:47;9.37;;;5.77;;
5900;SDS011;2976;49.764;9.796;2023-07-09T07:52:13;7.43;;;5.20;;
5900;SDS011;2976;49.764;9.796;2023-07-09T07:54:39;10.77;;;5.07;;
5900;SDS011;2976;49.764;9.796;2023-07-09T07:57:05;7.20;;;5.00;;
5900;SDS011;2976;49.764;9.796;2023-07-09T07:59:30;6.37;;;4.70;;
5900;SDS011;2976;49.764;9.796;2023-07-09T08:01:59;6.90;;;5.00;;
5900;SDS011;2976;49.764;9.796;2023-07-09T08:04:25;7.30;;;4.83;;
5900;SDS011;2976;49.764;9.796;2023-07-09T08:06:51;5.50;;;4.40;;
5900;SDS011;2976;49.764;9.796;2023-07-09T08:09:17;11.00;;;5.40;;
5900;SDS011;2976;49.764;9.796;2023-07-09T08:11:42;6.57;;;4.40;;
5900;SDS011;2976;49.764;9.796;2023-07-09T08:14:08;9.00;;;4.63;;
5900;SDS011;2976;49.764;9.796;2023-07-09T08:16:35;5.23;;;4.73;;
5900;SDS011;2976;49.764;9.796;2023-07-09T08:19:01;5.87;;;4.70;;
5900;SDS011;2976;49.764;9.796;2023-07-09T08:21:26;9.93;;;5.40;;
5900;SDS011;2976;49.764;9.796;2023-07-09T08:23:52;5.63;;;4.73;;
5900;SDS011;2976;49.764;9.796;2023-07-09T08:26:17;8.23;;;4.67;;
5900;SDS011;2976;49.764;9.796;2023-07-09T08:28:43;5.07;;;4.30;;
5900;SDS011;2976;49.764;9.796;2023-07-09T08:31:09;4.80;;;4.30;;
5900;SDS011;2976;49.764;9.796;2023-07-09T08:33:35;8.27;;;4.60;;
5900;SDS011;2976;49.764;9.796;2023-07-09T08:36:01;11.13;;;4.70;;
5900;SDS011;2976;49.764;9.796;2023-07-09T08:38:27;8.90;;;4.20;;
5900;SDS011;2976;49.764;9.796;2023-07-09T08:40:59;5.80;;;4.37;;
5900;SDS011;2976;49.764;9.796;2023-07-09T08:46:27;6.27;;;5.10;;
5900;SDS011;2976;49.764;9.796;2023-07-09T08:49:00;7.10;;;4.73;;
5900;SDS011;2976;49.764;9.796;2023-07-09T08:54:04;4.60;;;4.20;;
5900;SDS011;2976;49.764;9.796;2023-07-09T08:56:40;5.27;;;4.67;;
5900;SDS011;2976;49.764;9.796;2023-07-09T08:59:07;9.73;;;4.37;;
5900;SDS011;2976;49.764;9.796;2023-07-09T09:01:41;5.93;;;4.30;;
5900;SDS011;2976;49.764;9.796;2023-07-09T09:04:22;4.30;;;3.80;;
5900;SDS011;2976;49.764;9.796;2023-07-09T09:06:56;3.97;;;3.57;;
5900;SDS011;2976;49.764;9.796;2023-07-09T09:09:49;7.80;;;3.80;;
5900;SDS011;2976;49.764;9.796;2023-07-09T09:12:23;5.83;;;3.87;;
5900;SDS011;2976;49.764;9.796;2023-07-09T09:14:57;6.03;;;3.57;;
5900;SDS011;2976;49.764;9.796;2023-07-09T09:17:25;7.23;;;3.60;;
5900;SDS011;2976;49.764;9.796;2023-07-09T09:19:58;10.90;;;4.60;;
5900;SDS011;2976;49.764;9.796;2023-07-09T09:22:48;4.70;;;4.00;;
5900;SDS011;2976;49.764;9.796;2023-07-09T09:27:40;4.60;;;4.00;;
5900;SDS011;2976;49.764;9.796;2023-07-09T09:30:11;7.03;;;3.83;;
5900;SDS011;2976;49.764;9.796;2023-07-09T09:32:42;5.10;;;3.70;;
5900;SDS011;2976;49.764;9.796;2023-07-09T09:35:11;7.87;;;4.13;;
5900;SDS011;2976;49.764;9.796;2023-07-09T09:37:44;5.00;;;4.23;;
5900;SDS011;2976;49.764;9.796;2023-07-09T09:40:18;9.13;;;3.63;;
5900;SDS011;2976;49.764;9.796;2023-07-09T09:42:48;4.13;;;3.60;;
5900;SDS011;2976;49.764;9.796;2023-07-09T09:45:15;5.23;;;3.97;;
5900;SDS011;2976;49.764;9.796;2023-07-09T09:47:44;3.93;;;3.53;;
5900;SDS011;2976;49.764;9.796;2023-07-09T09:50:16;4.93;;;3.70;;
5900;SDS011;2976;49.764;9.796;2023-07-09T09:52:44;6.23;;;3.10;;
5900;SDS011;2976;49.764;9.796;2023-07-09T09:55:18;7.27;;;3.60;;
5900;SDS011;2976;49.764;9.796;2023-07-09T09:57:48;5.60;;;3.80;;
5900;SDS011;2976;49.764;9.796;2023-07-09T10:00:15;4.77;;;3.53;;
5900;SDS011;2976;49.764;9.796;2023-07-09T10:02:42;6.10;;;4.17;;
5900;SDS011;2976;49.764;9.796;2023-07-09T10:05:13;6.00;;;3.20;;
5900;SDS011;2976;49.764;9.796;2023-07-09T10:07:45;6.03;;;3.70;;
5900;SDS011;2976;49.764;9.796;2023-07-09T10:10:22;5.53;;;3.20;;
5900;SDS011;2976;49.764;9.796;2023-07-09T10:12:51;5.83;;;3.47;;
5900;SDS011;2976;49.764;9.796;2023-07-09T10:25:28;4.97;;;3.00;;
5900;SDS011;2976;49.764;9.796;2023-07-09T10:28:34;4.23;;;2.87;;
5900;SDS011;2976;49.764;9.796;2023-07-09T10:34:09;3.17;;;2.97;;
5900;SDS011;2976;49.764;9.796;2023-07-09T10:36:48;3.50;;;3.10;;
5900;SDS011;2976;49.764;9.796;2023-07-09T10:39:22;3.30;;;3.00;;
5900;SDS011;2976;49.764;9.796;2023-07-09T10:41:53;7.10;;;3.40;;
5900;SDS011;2976;49.764;9.796;2023-07-09T10:44:24;4.73;;;3.60;;
5900;SDS011;2976;49.764;9.796;2023-07-09T10:46:57;5.10;;;3.90;;
5900;SDS011;2976;49.764;9.796;2023-07-09T10:49:30;3.50;;;3.10;;
5900;SDS011;2976;49.764;9.796;2023-07-09T10:52:05;7.47;;;3.90;;
5900;SDS011;2976;49.764;9.796;2023-07-09T10:54:43;4.87;;;3.40;;
5900;SDS011;2976;49.764;9.796;2023-07-09T10:57:25;3.93;;;3.53;;
5900;SDS011;2976;49.764;9.796;2023-07-09T10:59:55;10.13;;;3.67;;
5900;SDS011;2976;49.764;9.796;2023-07-09T11:02:32;7.83;;;4.13;;
5900;SDS011;2976;49.764;9.796;2023-07-09T11:05:06;4.10;;;3.13;;
5900;SDS011;2976;49.764;9.796;2023-07-09T11:07:47;5.67;;;2.73;;
5900;SDS011;2976;49.764;9.796;2023-07-09T11:10:58;5.67;;;3.40;;
5900;SDS011;2976;49.764;9.796;2023-07-09T11:13:35;5.30;;;3.30;;
5900;SDS011;2976;49.764;9.796;2023-07-09T11:16:08;9.77;;;3.87;;
5900;SDS011;2976;49.764;9.796;2023-07-09T11:18:58;5.10;;;3.60;;
5900;SDS011;2976;49.764;9.796;2023-07-09T11:21:25;3.97;;;3.07;;
5900;SDS011;2976;49.764;9.796;2023-07-09T11:23:55;13.03;;;3.50;;
5900;SDS011;2976;49.764;9.796;2023-07-09T11:26:31;9.70;;;3.47;;
5900;SDS011;2976;49.764;9.796;2023-07-09T11:36:33;3.93;;;3.10;;
5900;SDS011;2976;49.764;9.796;2023-07-09T11:39:00;6.77;;;2.90;;
5900;SDS011;2976;49.764;9.796;2023-07-09T11:49:59;7.93;;;3.60;;
5900;SDS011;2976;49.764;9.796;2023-07-09T11:52:48;3.40;;;3.07;;
5900;SDS011;2976;49.764;9.796;2023-07-09T11:55:39;5.03;;;3.17;;
5900;SDS011;2976;49.764;9.796;2023-07-09T11:58:13;6.20;;;3.67;;
5900;SDS011;2976;49.764;9.796;2023-07-09T12:00:41;5.67;;;4.10;;
5900;SDS011;2976;49.764;9.796;2023-07-09T12:03:19;4.10;;;3.50;;
5900;SDS011;2976;49.764;9.796;2023-07-09T12:05:53;4.33;;;3.17;;
5900;SDS011;2976;49.764;9.796;2023-07-09T12:08:27;9.20;;;3.27;;
5900;SDS011;2976;49.764;9.796;2023-07-09T12:11:00;3.83;;;3.47;;
5900;SDS011;2976;49.764;9.796;2023-07-09T12:13:26;4.30;;;2.93;;
5900;SDS011;2976;49.764;9.796;2023-07-09T12:15:52;4.97;;;3.60;;
5900;SDS011;2976;49.764;9.796;2023-07-09T12:18:17;7.03;;;3.50;;
5900;SDS011;2976;49.764;9.796;2023-07-09T12:20:49;4.63;;;3.83;;
5900;SDS011;2976;49.764;9.796;2023-07-09T12:25:58;6.27;;;3.10;;
5900;SDS011;2976;49.764;9.796;2023-07-09T12:28:26;4.30;;;3.10;;
5900;SDS011;2976;49.764;9.796;2023-07-09T12:30:53;4.00;;;3.20;;
5900;SDS011;2976;49.764;9.796;2023-07-09T12:33:20;4.27;;;3.77;;
5900;SDS011;2976;49.764;9.796;2023-07-09T12:35:48;4.07;;;3.67;;
5900;SDS011;2976;49.764;9.796;2023-07-09T12:38:20;5.50;;;3.77;;
5900;SDS011;2976;49.764;9.796;2023-07-09T12:40:48;4.17;;;3.27;;
5900;SDS011;2976;49.764;9.796;2023-07-09T12:43:16;7.00;;;3.40;;
5900;SDS011;2976;49.764;9.796;2023-07-09T12:45:53;6.83;;;4.07;;
5900;SDS011;2976;49.764;9.796;2023-07-09T12:48:24;6.23;;;3.77;;
5900;SDS011;2976;49.764;9.796;2023-07-09T12:50:53;5.23;;;3.70;;
5900;SDS011;2976;49.764;9.796;2023-07-09T12:53:20;4.87;;;3.00;;
5900;SDS011;2976;49.764;9.796;2023-07-09T12:55:51;6.77;;;3.27;;
5900;SDS011;2976;49.764;9.796;2023-07-09T12:58:23;5.47;;;3.27;;
5900;SDS011;2976;49.764;9.796;2023-07-09T13:00:53;8.93;;;3.70;;
5900;SDS011;2976;49.764;9.796;2023-07-09T13:03:21;10.80;;;4.00;;
5900;SDS011;2976;49.764;9.796;2023-07-09T13:06:04;8.07;;;3.50;;
5900;SDS011;2976;49.764;9.796;2023-07-09T13:08:33;6.33;;;4.00;;
5900;SDS011;2976;49.764;9.796;2023-07-09T13:11:14;4.70;;;3.40;;
5900;SDS011;2976;49.764;9.796;2023-07-09T13:13:40;8.37;;;3.33;;
5900;SDS011;2976;49.764;9.796;2023-07-09T13:16:06;4.30;;;3.23;;
5900;SDS011;2976;49.764;9.796;2023-07-09T13:18:32;4.23;;;3.47;;
5900;SDS011;2976;49.764;9.796;2023-07-09T13:20:57;11.30;;;4.70;;
5900;SDS011;2976;49.764;9.796;2023-07-09T13:23:26;5.77;;;3.50;;
5900;SDS011;2976;49.764;9.796;2023-07-09T13:25:52;4.33;;;3.83;;
5900;SDS011;2976;49.764;9.796;2023-07-09T13:28:20;12.63;;;3.50;;
5900;SDS011;2976;49.764;9.796;2023-07-09T13:30:51;5.53;;;3.80;;
5900;SDS011;2976;49.764;9.796;2023-07-09T13:33:19;7.13;;;3.40;;
5900;SDS011;2976;49.764;9.796;2023-07-09T13:35:45;5.20;;;3.40;;
5900;SDS011;2976;49.764;9.796;2023-07-09T13:38:15;9.23;;;3.63;;
5900;SDS011;2976;49.764;9.796;2023-07-09T13:40:43;5.40;;;3.77;;
5900;SDS011;2976;49.764;9.796;2023-07-09T13:43:13;5.93;;;3.83;;
5900;SDS011;2976;49.764;9.796;2023-07-09T13:45:59;6.23;;;4.20;;
5900;SDS011;2976;49.764;9.796;2023-07-09T13:48:28;4.03;;;3.60;;
5900;SDS011;2976;49.764;9.796;2023-07-09T13:50:55;6.67;;;3.90;;
5900;SDS011;2976;49.764;9.796;2023-07-09T13:53:26;8.27;;;3.47;;
5900;SDS011;2976;49.764;9.796;2023-07-09T13:55:57;5.67;;;3.53;;
5900;SDS011;2976;49.764;9.796;2023-07-09T13:58:24;5.53;;;3.83;;
5900;SDS011;2976;49.764;9.796;2023-07-09T14:00:54;10.43;;;3.93;;
5900;SDS011;2976;49.764;9.796;2023-07-09T14:03:24;7.00;;;4.20;;
5900;SDS011;2976;49.764;9.796;2023-07-09T14:05:53;6.40;;;3.10;;
5900;SDS011;2976;49.764;9.796;2023-07-09T14:08:19;7.23;;;4.20;;
5900;SDS011;2976;49.764;9.796;2023-07-09T14:10:46;13.40;;;4.40;;
5900;SDS011;2976;49.764;9.796;2023-07-09T14:13:13;5.80;;;3.90;;
5900;SDS011;2976;49.764;9.796;2023-07-09T14:15:41;3.43;;;3.13;;
5900;SDS011;2976;49.764;9.796;2023-07-09T14:18:14;5.60;;;3.67;;
5900;SDS011;2976;49.764;9.796;2023-07-09T14:20:42;5.80;;;3.53;;
5900;SDS011;2976;49.764;9.796;2023-07-09T14:23:09;6.67;;;4.23;;
5900;SDS011;2976;49.764;9.796;2023-07-09T14:25:36;7.80;;;3.90;;
5900;SDS011;2976;49.764;9.796;2023-07-09T14:28:04;6.07;;;3.77;;
5900;SDS011;2976;49.764;9.796;2023-07-09T14:30:40;7.47;;;3.70;;
5900;SDS011;2976;49.764;9.796;2023-07-09T14:33:11;4.90;;;3.27;;
5900;SDS011;2976;49.764;9.796;2023-07-09T14:35:38;5.80;;;3.43;;
5900;SDS011;2976;49.764;9.796;2023-07-09T14:38:06;8.50;;;4.70;;
5900;SDS011;2976;49.764;9.796;2023-07-09T14:40:41;6.07;;;3.80;;
5900;SDS011;2976;49.764;9.796;2023-07-09T14:43:08;7.30;;;3.80;;
5900;SDS011;2976;49.764;9.796;2023-07-09T14:45:35;5.67;;;3.60;;
5900;SDS011;2976;49.764;9.796;2023-07-09T14:48:01;4.90;;;3.57;;
5900;SDS011;2976;49.764;9.796;2023-07-09T14:50:29;5.67;;;3.93;;
5900;SDS011;2976;49.764;9.796;2023-07-09T14:52:56;7.77;;;3.43;;
5900;SDS011;2976;49.764;9.796;2023-07-09T14:55:22;6.30;;;3.40;;
5900;SDS011;2976;49.764;9.796;2023-07-09T14:57:49;7.10;;;3.10;;
5900;SDS011;2976;49.764;9.796;2023-07-09T15:00:16;6.57;;;3.87;;
5900;SDS011;2976;49.764;9.796;2023-07-09T15:02:44;5.37;;;3.20;;
5900;SDS011;2976;49.764;9.796;2023-07-09T15:05:12;8.07;;;4.37;;
5900;SDS011;2976;49.764;9.796;2023-07-09T15:07:39;4.80;;;3.20;;
5900;SDS011;2976;49.764;9.796;2023-07-09T15:10:05;4.40;;;3.40;;
5900;SDS011;2976;49.764;9.796;2023-07-09T15:12:33;6.00;;;3.20;;
5900;SDS011;2976;49.764;9.796;2023-07-09T15:17:31;7.90;;;4.20;;
5900;SDS011;2976;49.764;9.796;2023-07-09T15:19:57;9.20;;;4.30;;
5900;SDS011;2976;49.764;9.796;2023-07-09T15:22:32;4.23;;;3.80;;
5900;SDS011;2976;49.764;9.796;2023-07-09T15:24:59;4.53;;;4.10;;
5900;SDS011;2976;49.764;9.796;2023-07-09T15:27:24;8.83;;;3.80;;
5900;SDS011;2976;49.764;9.796;2023-07-09T15:29:50;8.20;;;3.80;;
5900;SDS011;2976;49.764;9.796;2023-07-09T15:32:16;5.40;;;3.87;;
5900;SDS011;2976;49.764;9.796;2023-07-09T15:34:41;4.33;;;3.43;;
5900;SDS011;2976;49.764;9.796;2023-07-09T15:37:11;6.17;;;3.40;;
5900;SDS011;2976;49.764;9.796;2023-07-09T15:39:40;4.90;;;3.83;;
5900;SDS011;2976;49.764;9.796;2023-07-09T15:42:09;6.60;;;3.60;;
5900;SDS011;2976;49.764;9.796;2023-07-09T15:44:38;5.97;;;4.40;;
5900;SDS011;2976;49.764;9.796;2023-07-09T15:47:04;5.03;;;3.83;;
5900;SDS011;2976;49.764;9.796;2023-07-09T15:49:31;8.87;;;4.10;;
5900;SDS011;2976;49.764;9.796;2023-07-09T15:51:57;4.83;;;3.30;;
5900;SDS011;2976;49.764;9.796;2023-07-09T15:54:23;5.30;;;3.57;;
5900;SDS011;2976;49.764;9.796;2023-07-09T15:56:50;4.63;;;3.60;;
5900;SDS011;2976;49.764;9.796;2023-07-09T15:59:39;5.07;;;3.60;;
5900;SDS011;2976;49.764;9.796;2023-07-09T16:02:09;3.50;;;3.20;;
5900;SDS011;2976;49.764;9.796;2023-07-09T16:04:37;9.33;;;4.40;;
5900;SDS011;2976;49.764;9.796;2023-07-09T16:07:03;4.13;;;3.73;;
5900;SDS011;2976;49.764;9.796;2023-07-09T16:09:28;6.00;;;4.00;;